Startpagina
METAR-TAF:

METAR-TAF

Vliegvelden :

Luchthaven Brive-Vallée de la Dordogne

Brive-la-Gaillarde, Frankrijk

breedte: 45-02-28N, lengte: 001-28-59E, hoogte: 311 m

Actueel weer

Dit bericht is 22 minuten geleden gemaakt, om 20:00 UTC
Wind 3 kt uit het westnoordwesten
Temperatuur 8°C
Vochtigheid 87%
Druk 1032 hPa
Zicht 10 km of meer
geen wolken onder 1500 m en geen cumulonimbus

METAR: LFSL 232000Z AUTO 30003KT CAVOK 08/06 Q1032 TEMPO 0500 FG VV///

Tijdstip: 21:22 (20:22 UTC)

Verwachting

Dit bericht is 3 uur en het 22 minuten geleden gemaakt, om 17:00 UTC
Verwachting geldig van 23 om 18 UTC tot 24 om 03 UTC
Wind 3 kt uit variabele richting
Zicht 10 km of meer
geen wolken onder 1500 m en geen cumulonimbus
Wijzigt naar
van 23 om 19 UTC tot 23 om 21 UTC
Gebroken wolken op 1500 ft
Kans 30% :
Tijdelijke
van 23 om 21 UTC tot 23 om 24 UTC
Zicht: 0500 m
mist

TAF: LFSL 231700Z 2318/2403 VRB03KT CAVOK BECMG 2319/2321 BKN015 PROB30 TEMPO 2321/2324 0500 FG VV///

Waarnemingen en weersverwachtingen van meer dan 4000 vliegvelden (METAR en TAF).

De beschikbare stations zijn de gele en rode punten op de kaart.

Ga met uw muis naar het station om de naam te zien.

Klik dan om waarnemingen en weersverwachtingen te zien.

kaart wijzigen: klik op de groene knoppen met een zwart kruis om in te zoomen, op de groene knop met een streepje om uit te zoomen of op de groene pijlen voor aangrenzende kaarten.


METAR-TAF: